Artesia Wells, TX

6:09 PM CDT on July 25, 2014 (GMT -0500)
Laredo International (KLRD) Elev 509 ft | 27.54 °N, 99.46 °W | Change Station
Active Advisory: Special Statement

Current weather conditions updated 13 minutes ago

Partly Cloudy
Partly Cloudy
88 °F
Feels Like 98 °F
N
7
Wind Variable Wind from North

Tomorrow is forecast to be nearly the same temperature as today.

Today
High -- | Low -- °F
--% Chance of Precip.
Yesterday
High -- | Low -- °F
Precip. -- in
6:55 AM 8:31 PM
Waning Crescent, 1% visible
Pressure 29.90 in
Visibility 10.0 miles
Clouds Few 9000 ft
Heat Index 98 °F
Dew Point 75 °F
Humidity 65%
Rainfall 0.00 in
Snow Depth Not available.
UV 3 out of 12
Pollen 6.50 out of 12
Air Quality Not available.
Flu Activity Not available.
METAR KLRD 252256Z 35006KT 10SM FEW090 31/24 A2993 RMK AO2 T03110238 RAB2159E05 P0000 SLP123

More Conditions Fewer Conditions

Pressure 29.90 in
Visibility 10.0 miles
Clouds Few 9000 ft
Heat Index 98 °F
Dew Point 75 °F
Humidity 65%
Rainfall 0.00 in
Snow Depth Not available.
UV 3 out of 12
Pollen 6.50 out of 12
Air Quality Not available.
Flu Activity Not available.
METAR KLRD 252256Z 35006KT 10SM FEW090 31/24 A2993 RMK AO2 T03110238 RAB2159E05 P0000 SLP123

More Conditions Fewer Conditions

Nowcast | as of 5:47 PM CDT on July 25, 2014

Through 8 PM CDT...strong thunderstorms will progress to the northwest across Webb and La Salle counties. Expect heavy downpours with a half of an inch...to an inch of rain with these cells...and gusts from 40 to 50 miles an hour. Otherwise...the remainder of the region...including the coastal plains and coastal Bend...south of a Freer...Corpus Christi line...can expect isolated light showers that should dissipate by 7 PM CDT.

×

10-Day Weather Forecast

Almanac

Astronomy

Jul. 25, 2014 Rise Set
Actual Time 6:55 AM CDT 8:31 PM CDT
Civil Twilight 6:29 AM CDT 8:57 PM CDT
Nautical Twilight 5:58 AM CDT 9:28 PM CDT
Astronomical Twilight 5:26 AM CDT 10:00 PM CDT
Moon 5:53 AM CDT 7:34 PM CDT
Length of Visible Light 14h 27m
Length of Day
13h 36m
Tomorrow will be 1m 6s shorter.
Waning Crescent, 1% of the Moon is Illuminated
Today
Waning Crescent
Jul 26
New
Aug 3
First Quarter
Aug 10
Full
Aug 17
Last Quarter

Today's Extremes

State Highs State Lows

Community

WunderPhotos

Upload Photos

1,737,436 photos uploaded!

Nearby

Snow Depth

Station Depth Elevation
No new snow has been reported.

Earthquake Activity

City Distance Mag. Time & Date
No recent earthquake activity has been reported nearby.
Minimum magnitude displayed is 2.5.

Coastal Water Temperatures

Place Temperature
No Stations Reporting

Nearby Weather Stations

Station Location Temp. Heat Index Dew Point Humidity Wind Precip. Elev Updated Type
Huajuco Road, Cotulla, TX 84.1 °F 88 °F 69 °F 62% NE  at  4.4 mph 0.00 in / hr 394 ft 6:09 PM CDT Rapid Fire
MesoWest CLAGNN , Encinal, TX 98 °F 93 °F - - North  at  - 0.00 in / hr 539 ft 4:30 PM CDT MADIS

Show More Stations Show Fewer Stations